Cloverdale, Alabama
Current Conditions -  °F | °C
As of 7:53 AM on Thursday 29 Jan 2015 (Local Time) from KMSL Reporting Station
Overcast Overcast  
Wind Chill: 44°   Ceiling: 9500
Heat Index: 49°   Visibility: 10mi
Dew Point: 32°   Wind: 12mph
Humidity: 52%   Direction: 190°S
Pressure: 30.14"   Gusts: NA
Location:  34.94°N, 87.77°W
Report Text: KMSL 291353Z AUTO 19010KT 10SM OVC095 09/00 A3014 RMK AO2 RAB17E26 SLP208 P0000 T00940000
Loading
Personal Weather Stations






























Interactive Weather Map New forecast layout! Learn more

10-Day Weather Forecast

Advertisements
Track Severe Weather on mobile